TimePDT,TemperatureF,Dew PointF,Humidity,Sea Level PressureIn,VisibilityMPH,Wind Direction,Wind SpeedMPH,Gust SpeedMPH,PrecipitationIn,Events,Conditions,WindDirDegrees,DateUTC
12:54 AM,50.0,45.0,83,30.22,10.0,SSW,5.8,-,N/A,,Overcast,200,2013-03-13 07:54:00
1:54 AM,50.0,45.0,83,30.23,10.0,WSW,4.6,-,N/A,,Overcast,250,2013-03-13 08:54:00
2:25 AM,50.0,46.4,87,30.24,10.0,SW,4.6,-,N/A,,Overcast,230,2013-03-13 09:25:00
2:54 AM,50.0,46.0,86,30.25,10.0,SW,5.8,-,N/A,,Overcast,220,2013-03-13 09:54:00
3:54 AM,50.0,46.0,86,30.24,10.0,Calm,Calm,-,N/A,,Overcast,0,2013-03-13 10:54:00
4:54 AM,48.9,46.0,90,30.24,10.0,Calm,Calm,-,N/A,,Overcast,0,2013-03-13 11:54:00
5:54 AM,48.9,45.0,86,30.25,10.0,SSW,3.5,-,N/A,,Mostly Cloudy,210,2013-03-13 12:54:00
6:54 AM,46.9,43.0,86,30.23,10.0,SSW,3.5,-,N/A,,Mostly Cloudy,210,2013-03-13 13:54:00
7:12 AM,46.4,42.8,87,30.22,10.0,Calm,Calm,-,N/A,,Mostly Cloudy,0,2013-03-13 14:12:00
7:54 AM,46.0,44.1,93,30.23,10.0,Calm,Calm,-,N/A,,Overcast,0,2013-03-13 14:54:00
8:54 AM,48.0,46.0,93,30.23,10.0,Calm,Calm,-,N/A,,Overcast,0,2013-03-13 15:54:00
9:54 AM,51.1,46.0,83,30.23,10.0,SW,3.5,-,N/A,,Overcast,220,2013-03-13 16:54:00
10:54 AM,52.0,45.0,77,30.22,10.0,SW,3.5,-,N/A,,Overcast,220,2013-03-13 17:54:00
11:54 AM,55.0,46.9,74,30.22,10.0,Calm,Calm,-,N/A,,Overcast,0,2013-03-13 18:54:00
12:54 PM,57.9,48.0,70,30.20,10.0,SSW,3.5,-,N/A,,Mostly Cloudy,210,2013-03-13 19:54:00
1:54 PM,60.1,48.9,67,30.19,10.0,Calm,Calm,-,N/A,,Mostly Cloudy,0,2013-03-13 20:54:00
2:54 PM,64.0,50.0,60,30.16,10.0,Calm,Calm,-,N/A,,Mostly Cloudy,0,2013-03-13 21:54:00
3:54 PM,66.0,48.9,54,30.14,10.0,Calm,Calm,-,N/A,,Mostly Cloudy,0,2013-03-13 22:54:00
4:54 PM,66.9,48.9,52,30.13,10.0,NE,3.5,-,N/A,,Mostly Cloudy,50,2013-03-13 23:54:00
5:54 PM,64.9,52.0,63,30.11,10.0,NNE,6.9,-,N/A,,Mostly Cloudy,20,2013-03-14 00:54:00
6:54 PM,60.1,52.0,75,30.10,10.0,North,5.8,-,N/A,,Mostly Cloudy,10,2013-03-14 01:54:00
7:54 PM,57.9,52.0,81,30.11,10.0,NW,5.8,-,N/A,,Mostly Cloudy,320,2013-03-14 02:54:00
8:54 PM,55.9,51.1,84,30.11,10.0,Calm,Calm,-,N/A,,Mostly Cloudy,0,2013-03-14 03:54:00
9:54 PM,55.0,51.1,86,30.13,10.0,WSW,5.8,-,N/A,,Overcast,240,2013-03-14 04:54:00
10:54 PM,53.1,48.0,83,30.13,10.0,SW,8.1,-,N/A,,Overcast,220,2013-03-14 05:54:00
11:54 PM,51.1,46.9,86,30.12,10.0,SSW,6.9,-,N/A,,Clear,210,2013-03-14 06:54:00